sensor_id;sensor_type;location;lat;lon;timestamp;P1;durP1;ratioP1;P2;durP2;ratioP2
68168;SDS011;54981;50.206;15.978;2022-11-30T00:02:21;48.53;;;39.15;;
68168;SDS011;54981;50.206;15.978;2022-11-30T00:04:46;46.25;;;38.72;;
68168;SDS011;54981;50.206;15.978;2022-11-30T00:07:12;49.13;;;39.75;;
68168;SDS011;54981;50.206;15.978;2022-11-30T00:09:37;52.95;;;42.20;;
68168;SDS011;54981;50.206;15.978;2022-11-30T00:12:03;46.50;;;38.85;;
68168;SDS011;54981;50.206;15.978;2022-11-30T00:14:28;52.22;;;42.45;;
68168;SDS011;54981;50.206;15.978;2022-11-30T00:16:53;57.53;;;43.90;;
68168;SDS011;54981;50.206;15.978;2022-11-30T00:19:19;54.95;;;42.80;;
68168;SDS011;54981;50.206;15.978;2022-11-30T00:21:44;55.72;;;45.72;;
68168;SDS011;54981;50.206;15.978;2022-11-30T00:24:10;56.95;;;44.78;;
68168;SDS011;54981;50.206;15.978;2022-11-30T00:26:35;54.30;;;45.17;;
68168;SDS011;54981;50.206;15.978;2022-11-30T00:29:00;55.50;;;44.58;;
68168;SDS011;54981;50.206;15.978;2022-11-30T00:31:26;56.08;;;41.97;;
68168;SDS011;54981;50.206;15.978;2022-11-30T00:33:51;47.50;;;40.28;;
68168;SDS011;54981;50.206;15.978;2022-11-30T00:36:17;54.83;;;45.28;;
68168;SDS011;54981;50.206;15.978;2022-11-30T00:38:45;51.10;;;40.17;;
68168;SDS011;54981;50.206;15.978;2022-11-30T00:41:11;51.38;;;41.97;;
68168;SDS011;54981;50.206;15.978;2022-11-30T00:43:37;50.63;;;40.25;;
68168;SDS011;54981;50.206;15.978;2022-11-30T00:46:03;53.33;;;43.60;;
68168;SDS011;54981;50.206;15.978;2022-11-30T00:48:28;55.88;;;43.83;;
68168;SDS011;54981;50.206;15.978;2022-11-30T00:50:53;53.17;;;42.72;;
68168;SDS011;54981;50.206;15.978;2022-11-30T00:53:19;57.90;;;44.63;;
68168;SDS011;54981;50.206;15.978;2022-11-30T00:55:45;55.00;;;43.45;;
68168;SDS011;54981;50.206;15.978;2022-11-30T00:58:11;57.97;;;45.97;;
68168;SDS011;54981;50.206;15.978;2022-11-30T01:00:37;57.05;;;44.13;;
68168;SDS011;54981;50.206;15.978;2022-11-30T01:03:02;52.30;;;43.83;;
68168;SDS011;54981;50.206;15.978;2022-11-30T01:05:28;57.25;;;45.15;;
68168;SDS011;54981;50.206;15.978;2022-11-30T01:07:54;55.53;;;43.65;;
68168;SDS011;54981;50.206;15.978;2022-11-30T01:10:19;58.78;;;45.80;;
68168;SDS011;54981;50.206;15.978;2022-11-30T01:12:47;55.63;;;44.40;;
68168;SDS011;54981;50.206;15.978;2022-11-30T01:15:12;53.42;;;43.10;;
68168;SDS011;54981;50.206;15.978;2022-11-30T01:17:38;48.72;;;40.53;;
68168;SDS011;54981;50.206;15.978;2022-11-30T01:20:05;49.17;;;39.65;;
68168;SDS011;54981;50.206;15.978;2022-11-30T01:22:32;46.30;;;37.25;;
68168;SDS011;54981;50.206;15.978;2022-11-30T01:24:57;51.25;;;40.80;;
68168;SDS011;54981;50.206;15.978;2022-11-30T01:27:22;49.47;;;40.42;;
68168;SDS011;54981;50.206;15.978;2022-11-30T01:29:48;50.10;;;40.90;;
68168;SDS011;54981;50.206;15.978;2022-11-30T01:32:13;51.25;;;39.78;;
68168;SDS011;54981;50.206;15.978;2022-11-30T01:34:38;51.72;;;43.08;;
68168;SDS011;54981;50.206;15.978;2022-11-30T01:37:04;47.28;;;39.20;;
68168;SDS011;54981;50.206;15.978;2022-11-30T01:39:29;47.88;;;40.50;;
68168;SDS011;54981;50.206;15.978;2022-11-30T01:41:54;47.25;;;37.80;;
68168;SDS011;54981;50.206;15.978;2022-11-30T01:49:24;53.80;;;41.03;;
68168;SDS011;54981;50.206;15.978;2022-11-30T01:52:08;49.35;;;38.85;;
68168;SDS011;54981;50.206;15.978;2022-11-30T01:54:42;49.85;;;41.25;;
68168;SDS011;54981;50.206;15.978;2022-11-30T01:57:18;51.95;;;40.00;;
68168;SDS011;54981;50.206;15.978;2022-11-30T01:59:49;47.30;;;40.22;;
68168;SDS011;54981;50.206;15.978;2022-11-30T02:02:21;50.75;;;40.80;;
68168;SDS011;54981;50.206;15.978;2022-11-30T02:04:54;53.60;;;41.13;;
68168;SDS011;54981;50.206;15.978;2022-11-30T02:07:20;52.17;;;41.28;;
68168;SDS011;54981;50.206;15.978;2022-11-30T02:09:46;49.95;;;40.00;;
68168;SDS011;54981;50.206;15.978;2022-11-30T02:12:19;47.33;;;38.47;;
68168;SDS011;54981;50.206;15.978;2022-11-30T02:15:09;56.72;;;43.85;;
68168;SDS011;54981;50.206;15.978;2022-11-30T02:20:25;48.13;;;41.03;;
68168;SDS011;54981;50.206;15.978;2022-11-30T02:25:45;49.15;;;40.97;;
68168;SDS011;54981;50.206;15.978;2022-11-30T02:34:31;48.30;;;39.25;;
68168;SDS011;54981;50.206;15.978;2022-11-30T02:36:59;53.70;;;44.00;;
68168;SDS011;54981;50.206;15.978;2022-11-30T02:39:26;52.13;;;42.22;;
68168;SDS011;54981;50.206;15.978;2022-11-30T02:41:51;52.83;;;44.08;;
68168;SDS011;54981;50.206;15.978;2022-11-30T02:44:16;52.88;;;42.33;;
68168;SDS011;54981;50.206;15.978;2022-11-30T02:46:53;54.78;;;44.90;;
68168;SDS011;54981;50.206;15.978;2022-11-30T02:49:48;49.10;;;42.88;;
68168;SDS011;54981;50.206;15.978;2022-11-30T02:52:25;55.75;;;43.55;;
68168;SDS011;54981;50.206;15.978;2022-11-30T02:54:57;55.30;;;43.50;;
68168;SDS011;54981;50.206;15.978;2022-11-30T02:57:23;59.20;;;45.70;;
68168;SDS011;54981;50.206;15.978;2022-11-30T02:59:49;57.72;;;46.42;;
68168;SDS011;54981;50.206;15.978;2022-11-30T03:02:14;59.15;;;44.70;;
68168;SDS011;54981;50.206;15.978;2022-11-30T03:04:40;57.92;;;42.83;;
68168;SDS011;54981;50.206;15.978;2022-11-30T03:07:05;58.15;;;44.97;;
68168;SDS011;54981;50.206;15.978;2022-11-30T03:09:30;56.42;;;45.17;;
68168;SDS011;54981;50.206;15.978;2022-11-30T03:11:56;58.60;;;43.72;;
68168;SDS011;54981;50.206;15.978;2022-11-30T03:14:21;58.45;;;44.25;;
68168;SDS011;54981;50.206;15.978;2022-11-30T03:16:46;54.35;;;42.42;;
68168;SDS011;54981;50.206;15.978;2022-11-30T03:19:12;53.08;;;44.35;;
68168;SDS011;54981;50.206;15.978;2022-11-30T03:21:38;53.15;;;42.90;;
68168;SDS011;54981;50.206;15.978;2022-11-30T03:24:03;55.33;;;43.45;;
68168;SDS011;54981;50.206;15.978;2022-11-30T03:26:29;57.10;;;45.30;;
68168;SDS011;54981;50.206;15.978;2022-11-30T03:28:54;50.90;;;41.20;;
68168;SDS011;54981;50.206;15.978;2022-11-30T03:31:20;61.30;;;46.88;;
68168;SDS011;54981;50.206;15.978;2022-11-30T03:33:45;58.40;;;45.97;;
68168;SDS011;54981;50.206;15.978;2022-11-30T03:36:10;52.83;;;43.17;;
68168;SDS011;54981;50.206;15.978;2022-11-30T03:38:36;56.42;;;44.25;;
68168;SDS011;54981;50.206;15.978;2022-11-30T03:41:03;56.47;;;45.53;;
68168;SDS011;54981;50.206;15.978;2022-11-30T03:43:31;55.55;;;43.63;;
68168;SDS011;54981;50.206;15.978;2022-11-30T03:45:57;53.67;;;43.28;;
68168;SDS011;54981;50.206;15.978;2022-11-30T03:48:22;57.55;;;42.90;;
68168;SDS011;54981;50.206;15.978;2022-11-30T03:50:49;58.08;;;44.55;;
68168;SDS011;54981;50.206;15.978;2022-11-30T03:53:16;56.20;;;44.00;;
68168;SDS011;54981;50.206;15.978;2022-11-30T03:55:42;59.83;;;47.03;;
68168;SDS011;54981;50.206;15.978;2022-11-30T03:58:07;60.42;;;46.47;;
68168;SDS011;54981;50.206;15.978;2022-11-30T04:00:33;59.53;;;43.80;;
68168;SDS011;54981;50.206;15.978;2022-11-30T04:02:58;63.00;;;47.00;;
68168;SDS011;54981;50.206;15.978;2022-11-30T04:05:27;63.05;;;47.40;;
68168;SDS011;54981;50.206;15.978;2022-11-30T04:07:53;66.80;;;48.83;;
68168;SDS011;54981;50.206;15.978;2022-11-30T04:10:18;68.30;;;49.38;;
68168;SDS011;54981;50.206;15.978;2022-11-30T04:12:44;64.18;;;47.60;;
68168;SDS011;54981;50.206;15.978;2022-11-30T04:15:09;63.35;;;48.85;;
68168;SDS011;54981;50.206;15.978;2022-11-30T04:17:34;64.55;;;47.88;;
68168;SDS011;54981;50.206;15.978;2022-11-30T04:20:00;61.05;;;47.80;;
68168;SDS011;54981;50.206;15.978;2022-11-30T04:22:26;65.88;;;48.97;;
68168;SDS011;54981;50.206;15.978;2022-11-30T04:24:52;64.47;;;48.72;;
68168;SDS011;54981;50.206;15.978;2022-11-30T04:27:17;55.35;;;43.45;;
68168;SDS011;54981;50.206;15.978;2022-11-30T04:29:42;54.30;;;42.72;;
68168;SDS011;54981;50.206;15.978;2022-11-30T04:32:08;57.75;;;44.35;;
68168;SDS011;54981;50.206;15.978;2022-11-30T04:34:33;60.63;;;44.97;;
68168;SDS011;54981;50.206;15.978;2022-11-30T04:36:58;57.97;;;45.45;;
68168;SDS011;54981;50.206;15.978;2022-11-30T04:39:24;55.17;;;43.67;;
68168;SDS011;54981;50.206;15.978;2022-11-30T04:41:49;61.92;;;47.97;;
68168;SDS011;54981;50.206;15.978;2022-11-30T04:44:15;55.28;;;45.92;;
68168;SDS011;54981;50.206;15.978;2022-11-30T04:46:40;58.60;;;44.28;;
68168;SDS011;54981;50.206;15.978;2022-11-30T04:49:05;58.20;;;45.42;;
68168;SDS011;54981;50.206;15.978;2022-11-30T04:51:31;56.78;;;45.17;;
68168;SDS011;54981;50.206;15.978;2022-11-30T04:53:56;60.42;;;43.17;;
68168;SDS011;54981;50.206;15.978;2022-11-30T04:56:21;55.13;;;43.55;;
68168;SDS011;54981;50.206;15.978;2022-11-30T04:58:47;55.33;;;42.97;;
68168;SDS011;54981;50.206;15.978;2022-11-30T05:01:12;54.17;;;42.85;;
68168;SDS011;54981;50.206;15.978;2022-11-30T05:03:38;53.67;;;42.75;;
68168;SDS011;54981;50.206;15.978;2022-11-30T05:06:03;56.10;;;43.85;;
68168;SDS011;54981;50.206;15.978;2022-11-30T05:08:29;56.45;;;42.38;;
68168;SDS011;54981;50.206;15.978;2022-11-30T05:10:54;55.40;;;43.90;;
68168;SDS011;54981;50.206;15.978;2022-11-30T05:13:20;62.22;;;47.70;;
68168;SDS011;54981;50.206;15.978;2022-11-30T05:15:47;65.63;;;50.47;;
68168;SDS011;54981;50.206;15.978;2022-11-30T05:18:12;60.60;;;48.13;;
68168;SDS011;54981;50.206;15.978;2022-11-30T05:20:39;60.70;;;46.25;;
68168;SDS011;54981;50.206;15.978;2022-11-30T05:23:05;56.40;;;45.10;;
68168;SDS011;54981;50.206;15.978;2022-11-30T05:25:31;57.03;;;45.53;;
68168;SDS011;54981;50.206;15.978;2022-11-30T05:27:56;57.50;;;45.72;;
68168;SDS011;54981;50.206;15.978;2022-11-30T05:30:21;85.50;;;62.35;;
68168;SDS011;54981;50.206;15.978;2022-11-30T05:32:47;74.35;;;54.60;;
68168;SDS011;54981;50.206;15.978;2022-11-30T05:35:12;73.55;;;53.97;;
68168;SDS011;54981;50.206;15.978;2022-11-30T05:37:37;99.35;;;66.28;;
68168;SDS011;54981;50.206;15.978;2022-11-30T05:40:03;81.63;;;59.13;;
68168;SDS011;54981;50.206;15.978;2022-11-30T05:42:29;77.07;;;56.53;;
68168;SDS011;54981;50.206;15.978;2022-11-30T05:44:54;62.13;;;48.08;;
68168;SDS011;54981;50.206;15.978;2022-11-30T05:47:19;89.53;;;63.78;;
68168;SDS011;54981;50.206;15.978;2022-11-30T05:49:45;96.43;;;64.93;;
68168;SDS011;54981;50.206;15.978;2022-11-30T05:52:10;97.50;;;67.90;;
68168;SDS011;54981;50.206;15.978;2022-11-30T05:54:36;87.63;;;60.35;;
68168;SDS011;54981;50.206;15.978;2022-11-30T05:57:01;91.32;;;62.85;;
68168;SDS011;54981;50.206;15.978;2022-11-30T05:59:26;93.28;;;64.65;;
68168;SDS011;54981;50.206;15.978;2022-11-30T06:01:52;88.20;;;58.80;;
68168;SDS011;54981;50.206;15.978;2022-11-30T06:04:18;95.65;;;63.78;;
68168;SDS011;54981;50.206;15.978;2022-11-30T06:06:44;82.95;;;56.17;;
68168;SDS011;54981;50.206;15.978;2022-11-30T06:09:09;85.95;;;60.28;;
68168;SDS011;54981;50.206;15.978;2022-11-30T06:11:34;84.47;;;60.22;;
68168;SDS011;54981;50.206;15.978;2022-11-30T06:14:00;76.38;;;56.67;;
68168;SDS011;54981;50.206;15.978;2022-11-30T06:16:25;78.47;;;56.58;;
68168;SDS011;54981;50.206;15.978;2022-11-30T06:18:51;80.38;;;58.25;;
68168;SDS011;54981;50.206;15.978;2022-11-30T06:21:16;72.53;;;53.10;;
68168;SDS011;54981;50.206;15.978;2022-11-30T06:23:42;70.95;;;50.70;;
68168;SDS011;54981;50.206;15.978;2022-11-30T06:26:08;74.75;;;56.78;;
68168;SDS011;54981;50.206;15.978;2022-11-30T06:28:35;75.45;;;58.35;;
68168;SDS011;54981;50.206;15.978;2022-11-30T06:31:03;72.88;;;53.55;;
68168;SDS011;54981;50.206;15.978;2022-11-30T06:33:30;77.22;;;57.75;;
68168;SDS011;54981;50.206;15.978;2022-11-30T06:35:55;81.90;;;61.92;;
68168;SDS011;54981;50.206;15.978;2022-11-30T06:38:21;79.72;;;57.45;;
68168;SDS011;54981;50.206;15.978;2022-11-30T06:40:47;70.78;;;53.90;;
68168;SDS011;54981;50.206;15.978;2022-11-30T06:43:13;69.65;;;50.22;;
68168;SDS011;54981;50.206;15.978;2022-11-30T06:45:38;64.50;;;47.65;;
68168;SDS011;54981;50.206;15.978;2022-11-30T06:48:07;66.32;;;49.13;;
68168;SDS011;54981;50.206;15.978;2022-11-30T06:50:32;71.32;;;53.97;;
68168;SDS011;54981;50.206;15.978;2022-11-30T06:52:57;70.20;;;51.85;;
68168;SDS011;54981;50.206;15.978;2022-11-30T06:55:23;68.80;;;49.92;;
68168;SDS011;54981;50.206;15.978;2022-11-30T06:57:48;73.30;;;52.08;;
68168;SDS011;54981;50.206;15.978;2022-11-30T07:00:14;79.90;;;54.75;;
68168;SDS011;54981;50.206;15.978;2022-11-30T07:02:43;71.97;;;55.05;;
68168;SDS011;54981;50.206;15.978;2022-11-30T07:05:09;72.03;;;55.80;;
68168;SDS011;54981;50.206;15.978;2022-11-30T07:07:34;85.30;;;61.78;;
68168;SDS011;54981;50.206;15.978;2022-11-30T07:10:00;77.47;;;54.90;;
68168;SDS011;54981;50.206;15.978;2022-11-30T07:12:25;76.03;;;53.35;;
68168;SDS011;54981;50.206;15.978;2022-11-30T07:14:51;76.85;;;53.75;;
68168;SDS011;54981;50.206;15.978;2022-11-30T07:17:17;69.65;;;51.08;;
68168;SDS011;54981;50.206;15.978;2022-11-30T07:19:43;70.00;;;51.58;;
68168;SDS011;54981;50.206;15.978;2022-11-30T07:22:10;67.22;;;52.15;;
68168;SDS011;54981;50.206;15.978;2022-11-30T07:24:35;72.68;;;54.58;;
68168;SDS011;54981;50.206;15.978;2022-11-30T07:27:26;72.38;;;52.13;;
68168;SDS011;54981;50.206;15.978;2022-11-30T07:29:52;67.70;;;52.05;;
68168;SDS011;54981;50.206;15.978;2022-11-30T07:32:17;70.25;;;52.33;;
68168;SDS011;54981;50.206;15.978;2022-11-30T07:34:43;74.47;;;54.42;;
68168;SDS011;54981;50.206;15.978;2022-11-30T07:37:08;73.95;;;54.72;;
68168;SDS011;54981;50.206;15.978;2022-11-30T07:39:34;75.85;;;55.03;;
68168;SDS011;54981;50.206;15.978;2022-11-30T07:41:59;81.00;;;59.47;;
68168;SDS011;54981;50.206;15.978;2022-11-30T07:44:24;83.13;;;61.10;;
68168;SDS011;54981;50.206;15.978;2022-11-30T07:46:50;87.28;;;66.88;;
68168;SDS011;54981;50.206;15.978;2022-11-30T07:49:16;76.32;;;56.20;;
68168;SDS011;54981;50.206;15.978;2022-11-30T07:51:41;75.00;;;55.08;;
68168;SDS011;54981;50.206;15.978;2022-11-30T07:54:07;71.97;;;54.55;;
68168;SDS011;54981;50.206;15.978;2022-11-30T07:56:32;72.05;;;53.75;;
68168;SDS011;54981;50.206;15.978;2022-11-30T07:58:58;67.43;;;49.65;;
68168;SDS011;54981;50.206;15.978;2022-11-30T08:01:26;63.03;;;46.17;;
68168;SDS011;54981;50.206;15.978;2022-11-30T08:03:56;71.05;;;53.13;;
68168;SDS011;54981;50.206;15.978;2022-11-30T08:06:22;71.35;;;52.08;;
68168;SDS011;54981;50.206;15.978;2022-11-30T08:08:50;70.05;;;52.97;;
68168;SDS011;54981;50.206;15.978;2022-11-30T08:11:18;74.60;;;55.33;;
68168;SDS011;54981;50.206;15.978;2022-11-30T08:13:48;70.95;;;53.17;;
68168;SDS011;54981;50.206;15.978;2022-11-30T08:16:14;66.43;;;50.40;;
68168;SDS011;54981;50.206;15.978;2022-11-30T08:18:42;69.65;;;50.72;;
68168;SDS011;54981;50.206;15.978;2022-11-30T08:21:08;66.28;;;50.80;;
68168;SDS011;54981;50.206;15.978;2022-11-30T08:23:35;60.75;;;47.88;;
68168;SDS011;54981;50.206;15.978;2022-11-30T08:26:10;61.45;;;47.90;;
68168;SDS011;54981;50.206;15.978;2022-11-30T08:28:37;62.47;;;48.17;;
68168;SDS011;54981;50.206;15.978;2022-11-30T08:31:04;64.78;;;49.33;;
68168;SDS011;54981;50.206;15.978;2022-11-30T08:33:35;67.88;;;52.45;;
68168;SDS011;54981;50.206;15.978;2022-11-30T08:36:11;69.97;;;54.53;;
68168;SDS011;54981;50.206;15.978;2022-11-30T08:38:38;66.88;;;50.92;;
68168;SDS011;54981;50.206;15.978;2022-11-30T08:41:05;71.35;;;53.55;;
68168;SDS011;54981;50.206;15.978;2022-11-30T08:43:31;66.47;;;51.35;;
68168;SDS011;54981;50.206;15.978;2022-11-30T08:45:57;65.13;;;48.50;;
68168;SDS011;54981;50.206;15.978;2022-11-30T08:48:23;64.47;;;48.00;;
68168;SDS011;54981;50.206;15.978;2022-11-30T08:50:48;66.70;;;51.38;;
68168;SDS011;54981;50.206;15.978;2022-11-30T08:53:14;62.90;;;49.75;;
68168;SDS011;54981;50.206;15.978;2022-11-30T08:55:39;66.15;;;50.60;;
68168;SDS011;54981;50.206;15.978;2022-11-30T08:58:05;65.15;;;50.65;;
68168;SDS011;54981;50.206;15.978;2022-11-30T09:00:30;64.57;;;49.83;;
68168;SDS011;54981;50.206;15.978;2022-11-30T09:02:56;66.10;;;51.78;;
68168;SDS011;54981;50.206;15.978;2022-11-30T09:05:21;67.13;;;49.35;;
68168;SDS011;54981;50.206;15.978;2022-11-30T09:07:47;67.68;;;51.95;;
68168;SDS011;54981;50.206;15.978;2022-11-30T09:10:12;73.43;;;55.97;;
68168;SDS011;54981;50.206;15.978;2022-11-30T09:12:38;72.82;;;52.50;;
68168;SDS011;54981;50.206;15.978;2022-11-30T09:15:05;68.35;;;54.30;;
68168;SDS011;54981;50.206;15.978;2022-11-30T09:17:31;63.72;;;51.45;;
68168;SDS011;54981;50.206;15.978;2022-11-30T09:19:57;65.88;;;51.97;;
68168;SDS011;54981;50.206;15.978;2022-11-30T09:22:22;64.53;;;48.35;;
68168;SDS011;54981;50.206;15.978;2022-11-30T09:24:48;66.13;;;51.53;;
68168;SDS011;54981;50.206;15.978;2022-11-30T09:27:13;64.93;;;51.45;;
68168;SDS011;54981;50.206;15.978;2022-11-30T09:29:39;63.90;;;49.78;;
68168;SDS011;54981;50.206;15.978;2022-11-30T09:32:04;64.15;;;48.58;;
68168;SDS011;54981;50.206;15.978;2022-11-30T09:34:29;62.55;;;48.33;;
68168;SDS011;54981;50.206;15.978;2022-11-30T09:36:55;58.65;;;48.22;;
68168;SDS011;54981;50.206;15.978;2022-11-30T09:39:20;60.63;;;49.22;;
68168;SDS011;54981;50.206;15.978;2022-11-30T09:42:05;63.78;;;49.72;;
68168;SDS011;54981;50.206;15.978;2022-11-30T09:45:08;57.80;;;44.40;;
68168;SDS011;54981;50.206;15.978;2022-11-30T09:50:13;59.55;;;46.85;;
68168;SDS011;54981;50.206;15.978;2022-11-30T09:52:44;52.03;;;43.75;;
68168;SDS011;54981;50.206;15.978;2022-11-30T09:55:21;56.90;;;46.30;;
68168;SDS011;54981;50.206;15.978;2022-11-30T09:58:02;52.65;;;43.08;;
68168;SDS011;54981;50.206;15.978;2022-11-30T10:00:29;53.00;;;44.38;;
68168;SDS011;54981;50.206;15.978;2022-11-30T10:02:56;49.58;;;40.85;;
68168;SDS011;54981;50.206;15.978;2022-11-30T10:08:17;53.72;;;43.47;;
68168;SDS011;54981;50.206;15.978;2022-11-30T10:24:56;45.22;;;40.15;;
68168;SDS011;54981;50.206;15.978;2022-11-30T10:27:50;47.05;;;39.13;;
68168;SDS011;54981;50.206;15.978;2022-11-30T10:30:18;44.25;;;38.78;;
68168;SDS011;54981;50.206;15.978;2022-11-30T10:32:57;39.88;;;33.80;;
68168;SDS011;54981;50.206;15.978;2022-11-30T10:38:17;40.28;;;34.08;;
68168;SDS011;54981;50.206;15.978;2022-11-30T10:41:00;38.58;;;34.22;;
68168;SDS011;54981;50.206;15.978;2022-11-30T10:46:30;43.80;;;38.42;;
68168;SDS011;54981;50.206;15.978;2022-11-30T10:49:04;45.15;;;37.97;;
68168;SDS011;54981;50.206;15.978;2022-11-30T10:51:32;43.53;;;36.63;;
68168;SDS011;54981;50.206;15.978;2022-11-30T10:54:01;38.65;;;34.47;;
68168;SDS011;54981;50.206;15.978;2022-11-30T10:56:36;40.42;;;36.05;;
68168;SDS011;54981;50.206;15.978;2022-11-30T10:59:02;40.17;;;34.83;;
68168;SDS011;54981;50.206;15.978;2022-11-30T11:01:35;36.47;;;32.50;;
68168;SDS011;54981;50.206;15.978;2022-11-30T11:06:31;39.22;;;34.53;;
68168;SDS011;54981;50.206;15.978;2022-11-30T11:08:57;40.80;;;34.60;;
68168;SDS011;54981;50.206;15.978;2022-11-30T11:11:27;41.05;;;35.05;;
68168;SDS011;54981;50.206;15.978;2022-11-30T11:16:53;41.53;;;37.03;;
68168;SDS011;54981;50.206;15.978;2022-11-30T11:19:32;38.83;;;33.95;;
68168;SDS011;54981;50.206;15.978;2022-11-30T11:22:20;43.28;;;37.15;;
68168;SDS011;54981;50.206;15.978;2022-11-30T11:24:49;45.45;;;37.97;;
68168;SDS011;54981;50.206;15.978;2022-11-30T11:30:00;42.33;;;35.83;;
68168;SDS011;54981;50.206;15.978;2022-11-30T11:32:40;40.35;;;35.40;;
68168;SDS011;54981;50.206;15.978;2022-11-30T11:35:32;41.58;;;36.90;;
68168;SDS011;54981;50.206;15.978;2022-11-30T11:37:59;40.08;;;35.75;;
68168;SDS011;54981;50.206;15.978;2022-11-30T11:40:25;40.03;;;35.65;;
68168;SDS011;54981;50.206;15.978;2022-11-30T11:42:54;43.22;;;37.47;;
68168;SDS011;54981;50.206;15.978;2022-11-30T11:47:58;40.97;;;36.13;;
68168;SDS011;54981;50.206;15.978;2022-11-30T11:50:30;41.17;;;36.45;;
68168;SDS011;54981;50.206;15.978;2022-11-30T11:53:16;37.95;;;33.92;;
68168;SDS011;54981;50.206;15.978;2022-11-30T11:55:52;41.97;;;35.90;;
68168;SDS011;54981;50.206;15.978;2022-11-30T11:58:36;41.00;;;35.03;;
68168;SDS011;54981;50.206;15.978;2022-11-30T12:01:06;38.92;;;32.95;;
68168;SDS011;54981;50.206;15.978;2022-11-30T12:03:48;37.22;;;33.08;;
68168;SDS011;54981;50.206;15.978;2022-11-30T12:06:17;38.63;;;34.33;;
68168;SDS011;54981;50.206;15.978;2022-11-30T12:08:51;39.85;;;34.47;;
68168;SDS011;54981;50.206;15.978;2022-11-30T12:11:41;42.35;;;35.33;;
68168;SDS011;54981;50.206;15.978;2022-11-30T12:14:09;38.47;;;34.30;;
68168;SDS011;54981;50.206;15.978;2022-11-30T12:16:47;39.65;;;35.35;;
68168;SDS011;54981;50.206;15.978;2022-11-30T12:19:36;37.95;;;31.70;;
68168;SDS011;54981;50.206;15.978;2022-11-30T12:22:19;42.97;;;36.22;;
68168;SDS011;54981;50.206;15.978;2022-11-30T12:30:43;48.70;;;39.35;;
68168;SDS011;54981;50.206;15.978;2022-11-30T12:33:28;44.97;;;36.08;;
68168;SDS011;54981;50.206;15.978;2022-11-30T12:38:57;40.53;;;35.58;;
68168;SDS011;54981;50.206;15.978;2022-11-30T13:01:26;41.08;;;35.95;;
68168;SDS011;54981;50.206;15.978;2022-11-30T13:06:50;40.35;;;33.90;;
68168;SDS011;54981;50.206;15.978;2022-11-30T13:12:12;43.83;;;35.00;;
68168;SDS011;54981;50.206;15.978;2022-11-30T13:14:43;48.33;;;38.47;;
68168;SDS011;54981;50.206;15.978;2022-11-30T13:17:14;41.45;;;36.67;;
68168;SDS011;54981;50.206;15.978;2022-11-30T13:25:19;41.10;;;35.58;;
68168;SDS011;54981;50.206;15.978;2022-11-30T13:27:54;43.80;;;37.17;;
68168;SDS011;54981;50.206;15.978;2022-11-30T13:35:58;42.58;;;35.42;;
68168;SDS011;54981;50.206;15.978;2022-11-30T13:38:24;42.03;;;34.67;;
68168;SDS011;54981;50.206;15.978;2022-11-30T13:40:57;39.50;;;35.22;;
68168;SDS011;54981;50.206;15.978;2022-11-30T13:43:30;39.97;;;34.80;;
68168;SDS011;54981;50.206;15.978;2022-11-30T13:46:04;39.83;;;33.75;;
68168;SDS011;54981;50.206;15.978;2022-11-30T13:48:37;40.78;;;34.58;;
68168;SDS011;54981;50.206;15.978;2022-11-30T13:51:04;42.20;;;35.75;;
68168;SDS011;54981;50.206;15.978;2022-11-30T13:53:30;46.33;;;39.58;;
68168;SDS011;54981;50.206;15.978;2022-11-30T14:04:26;47.88;;;36.58;;
68168;SDS011;54981;50.206;15.978;2022-11-30T14:06:55;41.03;;;35.15;;
68168;SDS011;54981;50.206;15.978;2022-11-30T14:14:58;40.63;;;34.38;;
68168;SDS011;54981;50.206;15.978;2022-11-30T14:17:25;37.85;;;33.60;;
68168;SDS011;54981;50.206;15.978;2022-11-30T14:20:10;40.35;;;34.30;;
68168;SDS011;54981;50.206;15.978;2022-11-30T14:22:40;45.55;;;39.10;;
68168;SDS011;54981;50.206;15.978;2022-11-30T14:25:11;42.53;;;36.92;;
68168;SDS011;54981;50.206;15.978;2022-11-30T14:27:39;41.67;;;37.15;;
68168;SDS011;54981;50.206;15.978;2022-11-30T14:30:04;42.60;;;37.65;;
68168;SDS011;54981;50.206;15.978;2022-11-30T14:32:35;41.92;;;36.63;;
68168;SDS011;54981;50.206;15.978;2022-11-30T14:35:15;42.13;;;37.53;;
68168;SDS011;54981;50.206;15.978;2022-11-30T14:40:20;43.45;;;38.58;;
68168;SDS011;54981;50.206;15.978;2022-11-30T14:42:58;41.42;;;35.72;;
68168;SDS011;54981;50.206;15.978;2022-11-30T14:45:26;48.28;;;38.70;;
68168;SDS011;54981;50.206;15.978;2022-11-30T14:48:29;46.95;;;39.13;;
68168;SDS011;54981;50.206;15.978;2022-11-30T14:50:52;46.40;;;39.38;;
68168;SDS011;54981;50.206;15.978;2022-11-30T14:56:05;46.08;;;37.80;;
68168;SDS011;54981;50.206;15.978;2022-11-30T15:01:26;49.47;;;42.90;;
68168;SDS011;54981;50.206;15.978;2022-11-30T15:03:55;51.17;;;42.25;;
68168;SDS011;54981;50.206;15.978;2022-11-30T15:06:30;58.30;;;50.95;;
68168;SDS011;54981;50.206;15.978;2022-11-30T15:08:57;55.80;;;49.63;;
68168;SDS011;54981;50.206;15.978;2022-11-30T15:11:24;61.90;;;51.75;;
68168;SDS011;54981;50.206;15.978;2022-11-30T15:13:53;56.33;;;49.78;;
68168;SDS011;54981;50.206;15.978;2022-11-30T15:18:49;49.17;;;41.28;;
68168;SDS011;54981;50.206;15.978;2022-11-30T15:21:19;55.38;;;48.17;;
68168;SDS011;54981;50.206;15.978;2022-11-30T15:23:53;52.67;;;44.75;;
68168;SDS011;54981;50.206;15.978;2022-11-30T15:28:53;45.88;;;39.70;;
68168;SDS011;54981;50.206;15.978;2022-11-30T15:31:21;43.45;;;37.92;;
68168;SDS011;54981;50.206;15.978;2022-11-30T15:33:49;45.53;;;36.65;;
68168;SDS011;54981;50.206;15.978;2022-11-30T15:36:15;46.22;;;40.97;;
68168;SDS011;54981;50.206;15.978;2022-11-30T15:38:46;43.80;;;37.58;;
68168;SDS011;54981;50.206;15.978;2022-11-30T15:41:17;46.92;;;39.58;;
68168;SDS011;54981;50.206;15.978;2022-11-30T15:43:47;40.42;;;35.58;;
68168;SDS011;54981;50.206;15.978;2022-11-30T15:46:28;40.83;;;34.72;;
68168;SDS011;54981;50.206;15.978;2022-11-30T15:51:47;36.38;;;31.70;;
68168;SDS011;54981;50.206;15.978;2022-11-30T15:57:07;38.65;;;32.78;;
68168;SDS011;54981;50.206;15.978;2022-11-30T15:59:33;39.40;;;33.38;;
68168;SDS011;54981;50.206;15.978;2022-11-30T16:01:59;36.92;;;32.42;;
68168;SDS011;54981;50.206;15.978;2022-11-30T16:07:28;37.88;;;32.58;;
68168;SDS011;54981;50.206;15.978;2022-11-30T16:10:02;40.38;;;35.90;;
68168;SDS011;54981;50.206;15.978;2022-11-30T16:12:29;48.35;;;39.53;;
68168;SDS011;54981;50.206;15.978;2022-11-30T16:14:55;45.78;;;40.05;;
68168;SDS011;54981;50.206;15.978;2022-11-30T16:17:21;51.83;;;42.90;;
68168;SDS011;54981;50.206;15.978;2022-11-30T16:19:46;47.65;;;42.35;;
68168;SDS011;54981;50.206;15.978;2022-11-30T16:22:12;45.33;;;40.50;;
68168;SDS011;54981;50.206;15.978;2022-11-30T16:24:39;46.03;;;39.47;;
68168;SDS011;54981;50.206;15.978;2022-11-30T16:27:15;39.95;;;35.75;;
68168;SDS011;54981;50.206;15.978;2022-11-30T16:29:42;42.17;;;37.47;;
68168;SDS011;54981;50.206;15.978;2022-11-30T16:32:12;50.60;;;39.25;;